sensor_id;sensor_type;location;lat;lon;timestamp;P1;durP1;ratioP1;P2;durP2;ratioP2
69822;SDS011;57119;52.516;13.508;2023-11-19T00:01:25;10.70;;;4.53;;
69822;SDS011;57119;52.516;13.508;2023-11-19T00:03:51;11.05;;;4.53;;
69822;SDS011;57119;52.516;13.508;2023-11-19T00:06:16;9.97;;;4.70;;
69822;SDS011;57119;52.516;13.508;2023-11-19T00:08:42;9.43;;;4.87;;
69822;SDS011;57119;52.516;13.508;2023-11-19T00:11:08;11.93;;;4.85;;
69822;SDS011;57119;52.516;13.508;2023-11-19T00:13:34;10.63;;;5.33;;
69822;SDS011;57119;52.516;13.508;2023-11-19T00:15:59;10.00;;;4.50;;
69822;SDS011;57119;52.516;13.508;2023-11-19T00:18:25;10.37;;;4.50;;
69822;SDS011;57119;52.516;13.508;2023-11-19T00:20:50;13.00;;;5.33;;
69822;SDS011;57119;52.516;13.508;2023-11-19T00:23:15;10.87;;;5.07;;
69822;SDS011;57119;52.516;13.508;2023-11-19T00:25:41;9.57;;;4.83;;
69822;SDS011;57119;52.516;13.508;2023-11-19T00:28:06;12.27;;;4.50;;
69822;SDS011;57119;52.516;13.508;2023-11-19T00:30:32;10.18;;;4.63;;
69822;SDS011;57119;52.516;13.508;2023-11-19T00:32:57;9.63;;;4.13;;
69822;SDS011;57119;52.516;13.508;2023-11-19T00:35:24;8.52;;;4.18;;
69822;SDS011;57119;52.516;13.508;2023-11-19T00:37:49;9.50;;;4.30;;
69822;SDS011;57119;52.516;13.508;2023-11-19T00:40:15;10.20;;;4.20;;
69822;SDS011;57119;52.516;13.508;2023-11-19T00:42:43;10.65;;;4.57;;
69822;SDS011;57119;52.516;13.508;2023-11-19T00:45:08;10.20;;;4.57;;
69822;SDS011;57119;52.516;13.508;2023-11-19T00:47:34;9.73;;;4.70;;
69822;SDS011;57119;52.516;13.508;2023-11-19T00:50:00;11.45;;;5.20;;
69822;SDS011;57119;52.516;13.508;2023-11-19T00:52:26;10.23;;;4.00;;
69822;SDS011;57119;52.516;13.508;2023-11-19T00:54:52;11.20;;;4.53;;
69822;SDS011;57119;52.516;13.508;2023-11-19T00:57:17;9.90;;;4.28;;
69822;SDS011;57119;52.516;13.508;2023-11-19T00:59:42;10.67;;;4.20;;
69822;SDS011;57119;52.516;13.508;2023-11-19T01:02:08;9.50;;;4.20;;
69822;SDS011;57119;52.516;13.508;2023-11-19T01:04:34;8.80;;;4.13;;
69822;SDS011;57119;52.516;13.508;2023-11-19T01:07:01;9.27;;;3.97;;
69822;SDS011;57119;52.516;13.508;2023-11-19T01:09:30;12.13;;;4.47;;
69822;SDS011;57119;52.516;13.508;2023-11-19T01:11:59;9.50;;;4.13;;
69822;SDS011;57119;52.516;13.508;2023-11-19T01:14:26;10.07;;;4.17;;
69822;SDS011;57119;52.516;13.508;2023-11-19T01:16:52;8.43;;;3.63;;
69822;SDS011;57119;52.516;13.508;2023-11-19T01:19:19;9.43;;;3.95;;
69822;SDS011;57119;52.516;13.508;2023-11-19T01:21:44;9.87;;;4.03;;
69822;SDS011;57119;52.516;13.508;2023-11-19T01:24:10;10.48;;;3.65;;
69822;SDS011;57119;52.516;13.508;2023-11-19T01:26:38;8.97;;;4.13;;
69822;SDS011;57119;52.516;13.508;2023-11-19T01:29:03;9.50;;;3.70;;
69822;SDS011;57119;52.516;13.508;2023-11-19T01:31:29;9.07;;;3.93;;
69822;SDS011;57119;52.516;13.508;2023-11-19T01:33:56;10.65;;;3.90;;
69822;SDS011;57119;52.516;13.508;2023-11-19T01:36:22;10.50;;;4.57;;
69822;SDS011;57119;52.516;13.508;2023-11-19T01:38:48;9.95;;;4.20;;
69822;SDS011;57119;52.516;13.508;2023-11-19T01:41:13;8.43;;;3.60;;
69822;SDS011;57119;52.516;13.508;2023-11-19T01:43:39;9.23;;;3.57;;
69822;SDS011;57119;52.516;13.508;2023-11-19T01:46:07;8.73;;;3.83;;
69822;SDS011;57119;52.516;13.508;2023-11-19T01:48:37;8.52;;;3.42;;
69822;SDS011;57119;52.516;13.508;2023-11-19T01:51:06;10.10;;;4.03;;
69822;SDS011;57119;52.516;13.508;2023-11-19T01:53:32;8.52;;;3.47;;
69822;SDS011;57119;52.516;13.508;2023-11-19T01:55:59;8.82;;;3.60;;
69822;SDS011;57119;52.516;13.508;2023-11-19T01:58:25;8.23;;;3.43;;
69822;SDS011;57119;52.516;13.508;2023-11-19T02:00:51;9.43;;;3.63;;
69822;SDS011;57119;52.516;13.508;2023-11-19T02:03:17;8.50;;;3.83;;
69822;SDS011;57119;52.516;13.508;2023-11-19T02:05:42;7.47;;;3.13;;
69822;SDS011;57119;52.516;13.508;2023-11-19T02:08:08;7.88;;;3.50;;
69822;SDS011;57119;52.516;13.508;2023-11-19T02:10:33;9.33;;;4.00;;
69822;SDS011;57119;52.516;13.508;2023-11-19T02:12:59;9.47;;;3.77;;
69822;SDS011;57119;52.516;13.508;2023-11-19T02:15:25;11.48;;;3.85;;
69822;SDS011;57119;52.516;13.508;2023-11-19T02:17:51;8.63;;;3.67;;
69822;SDS011;57119;52.516;13.508;2023-11-19T02:20:16;7.88;;;3.80;;
69822;SDS011;57119;52.516;13.508;2023-11-19T02:22:45;9.75;;;4.07;;
69822;SDS011;57119;52.516;13.508;2023-11-19T02:25:18;9.03;;;3.90;;
69822;SDS011;57119;52.516;13.508;2023-11-19T02:27:51;8.57;;;3.60;;
69822;SDS011;57119;52.516;13.508;2023-11-19T02:30:22;10.65;;;3.95;;
69822;SDS011;57119;52.516;13.508;2023-11-19T02:32:54;9.48;;;4.13;;
69822;SDS011;57119;52.516;13.508;2023-11-19T02:35:22;10.00;;;4.35;;
69822;SDS011;57119;52.516;13.508;2023-11-19T02:37:48;8.47;;;3.90;;
69822;SDS011;57119;52.516;13.508;2023-11-19T02:40:13;9.25;;;3.85;;
69822;SDS011;57119;52.516;13.508;2023-11-19T02:42:39;8.40;;;3.60;;
69822;SDS011;57119;52.516;13.508;2023-11-19T02:45:04;7.37;;;3.10;;
69822;SDS011;57119;52.516;13.508;2023-11-19T02:47:32;8.70;;;3.50;;
69822;SDS011;57119;52.516;13.508;2023-11-19T02:49:58;9.23;;;3.83;;
69822;SDS011;57119;52.516;13.508;2023-11-19T02:52:24;10.50;;;3.23;;
69822;SDS011;57119;52.516;13.508;2023-11-19T02:54:50;10.15;;;3.53;;
69822;SDS011;57119;52.516;13.508;2023-11-19T02:57:15;8.33;;;3.17;;
69822;SDS011;57119;52.516;13.508;2023-11-19T02:59:44;8.27;;;3.35;;
69822;SDS011;57119;52.516;13.508;2023-11-19T03:02:09;7.22;;;3.25;;
69822;SDS011;57119;52.516;13.508;2023-11-19T03:04:40;8.90;;;3.37;;
69822;SDS011;57119;52.516;13.508;2023-11-19T03:07:08;7.60;;;3.30;;
69822;SDS011;57119;52.516;13.508;2023-11-19T03:09:33;8.17;;;3.00;;
69822;SDS011;57119;52.516;13.508;2023-11-19T03:12:00;7.95;;;3.00;;
69822;SDS011;57119;52.516;13.508;2023-11-19T03:14:25;7.60;;;2.77;;
69822;SDS011;57119;52.516;13.508;2023-11-19T03:16:51;7.97;;;2.90;;
69822;SDS011;57119;52.516;13.508;2023-11-19T03:19:16;6.77;;;2.33;;
69822;SDS011;57119;52.516;13.508;2023-11-19T03:21:42;6.97;;;2.70;;
69822;SDS011;57119;52.516;13.508;2023-11-19T03:24:07;6.97;;;2.58;;
69822;SDS011;57119;52.516;13.508;2023-11-19T03:26:33;8.17;;;2.87;;
69822;SDS011;57119;52.516;13.508;2023-11-19T03:28:59;6.78;;;2.58;;
69822;SDS011;57119;52.516;13.508;2023-11-19T03:31:24;7.63;;;3.07;;
69822;SDS011;57119;52.516;13.508;2023-11-19T03:33:50;7.32;;;2.70;;
69822;SDS011;57119;52.516;13.508;2023-11-19T03:36:16;6.43;;;2.47;;
69822;SDS011;57119;52.516;13.508;2023-11-19T03:38:41;7.67;;;2.60;;
69822;SDS011;57119;52.516;13.508;2023-11-19T03:41:11;7.75;;;2.70;;
69822;SDS011;57119;52.516;13.508;2023-11-19T03:43:37;6.75;;;2.42;;
69822;SDS011;57119;52.516;13.508;2023-11-19T03:46:02;10.03;;;3.27;;
69822;SDS011;57119;52.516;13.508;2023-11-19T03:48:27;8.63;;;3.00;;
69822;SDS011;57119;52.516;13.508;2023-11-19T03:50:53;7.20;;;2.80;;
69822;SDS011;57119;52.516;13.508;2023-11-19T03:53:18;9.27;;;3.50;;
69822;SDS011;57119;52.516;13.508;2023-11-19T03:55:43;10.77;;;3.40;;
69822;SDS011;57119;52.516;13.508;2023-11-19T03:58:09;9.00;;;3.30;;
69822;SDS011;57119;52.516;13.508;2023-11-19T04:00:34;8.77;;;3.70;;
69822;SDS011;57119;52.516;13.508;2023-11-19T04:03:00;8.10;;;3.20;;
69822;SDS011;57119;52.516;13.508;2023-11-19T04:05:25;9.43;;;3.60;;
69822;SDS011;57119;52.516;13.508;2023-11-19T04:07:50;8.00;;;3.75;;
69822;SDS011;57119;52.516;13.508;2023-11-19T04:10:16;8.83;;;3.83;;
69822;SDS011;57119;52.516;13.508;2023-11-19T04:12:42;7.87;;;3.40;;
69822;SDS011;57119;52.516;13.508;2023-11-19T04:15:08;9.88;;;4.18;;
69822;SDS011;57119;52.516;13.508;2023-11-19T04:17:33;10.50;;;4.73;;
69822;SDS011;57119;52.516;13.508;2023-11-19T04:19:59;9.63;;;4.75;;
69822;SDS011;57119;52.516;13.508;2023-11-19T04:22:24;10.00;;;4.37;;
69822;SDS011;57119;52.516;13.508;2023-11-19T04:24:50;11.63;;;4.70;;
69822;SDS011;57119;52.516;13.508;2023-11-19T04:27:15;10.93;;;4.30;;
69822;SDS011;57119;52.516;13.508;2023-11-19T04:29:40;10.43;;;3.93;;
69822;SDS011;57119;52.516;13.508;2023-11-19T04:32:06;11.50;;;4.47;;
69822;SDS011;57119;52.516;13.508;2023-11-19T04:34:32;11.27;;;4.67;;
69822;SDS011;57119;52.516;13.508;2023-11-19T04:36:57;12.93;;;4.60;;
69822;SDS011;57119;52.516;13.508;2023-11-19T04:39:26;11.60;;;4.23;;
69822;SDS011;57119;52.516;13.508;2023-11-19T04:41:51;11.57;;;4.65;;
69822;SDS011;57119;52.516;13.508;2023-11-19T04:44:18;9.50;;;4.13;;
69822;SDS011;57119;52.516;13.508;2023-11-19T04:46:44;11.37;;;4.43;;
69822;SDS011;57119;52.516;13.508;2023-11-19T04:49:10;10.75;;;4.55;;
69822;SDS011;57119;52.516;13.508;2023-11-19T04:51:42;10.63;;;4.25;;
69822;SDS011;57119;52.516;13.508;2023-11-19T04:54:09;11.03;;;4.60;;
69822;SDS011;57119;52.516;13.508;2023-11-19T04:56:35;16.00;;;5.38;;
69822;SDS011;57119;52.516;13.508;2023-11-19T04:59:02;10.65;;;5.22;;
69822;SDS011;57119;52.516;13.508;2023-11-19T05:01:27;12.45;;;5.05;;
69822;SDS011;57119;52.516;13.508;2023-11-19T05:03:53;12.23;;;5.37;;
69822;SDS011;57119;52.516;13.508;2023-11-19T05:06:18;13.30;;;5.87;;
69822;SDS011;57119;52.516;13.508;2023-11-19T05:08:44;12.93;;;6.27;;
69822;SDS011;57119;52.516;13.508;2023-11-19T05:11:11;12.90;;;6.18;;
69822;SDS011;57119;52.516;13.508;2023-11-19T05:13:37;12.68;;;5.80;;
69822;SDS011;57119;52.516;13.508;2023-11-19T05:16:03;11.47;;;5.43;;
69822;SDS011;57119;52.516;13.508;2023-11-19T05:18:28;13.97;;;5.73;;
69822;SDS011;57119;52.516;13.508;2023-11-19T05:20:54;12.70;;;5.13;;
69822;SDS011;57119;52.516;13.508;2023-11-19T05:23:19;13.87;;;6.80;;
69822;SDS011;57119;52.516;13.508;2023-11-19T05:25:45;12.70;;;5.53;;
69822;SDS011;57119;52.516;13.508;2023-11-19T05:28:10;12.80;;;5.70;;
69822;SDS011;57119;52.516;13.508;2023-11-19T05:30:36;11.02;;;5.55;;
69822;SDS011;57119;52.516;13.508;2023-11-19T05:33:01;11.60;;;5.30;;
69822;SDS011;57119;52.516;13.508;2023-11-19T05:35:27;12.80;;;5.90;;
69822;SDS011;57119;52.516;13.508;2023-11-19T05:37:52;12.13;;;5.50;;
69822;SDS011;57119;52.516;13.508;2023-11-19T05:40:18;11.97;;;5.47;;
69822;SDS011;57119;52.516;13.508;2023-11-19T05:42:45;14.20;;;6.37;;
69822;SDS011;57119;52.516;13.508;2023-11-19T05:45:11;13.93;;;6.00;;
69822;SDS011;57119;52.516;13.508;2023-11-19T05:47:37;12.93;;;5.90;;
69822;SDS011;57119;52.516;13.508;2023-11-19T05:50:02;11.73;;;5.50;;
69822;SDS011;57119;52.516;13.508;2023-11-19T05:52:30;12.67;;;5.50;;
69822;SDS011;57119;52.516;13.508;2023-11-19T05:54:59;11.50;;;5.32;;
69822;SDS011;57119;52.516;13.508;2023-11-19T05:57:27;11.18;;;5.03;;
69822;SDS011;57119;52.516;13.508;2023-11-19T05:59:54;12.20;;;5.70;;
69822;SDS011;57119;52.516;13.508;2023-11-19T06:02:19;12.83;;;5.53;;
69822;SDS011;57119;52.516;13.508;2023-11-19T06:04:45;12.37;;;5.30;;
69822;SDS011;57119;52.516;13.508;2023-11-19T06:07:12;12.32;;;5.75;;
69822;SDS011;57119;52.516;13.508;2023-11-19T06:09:38;12.52;;;4.97;;
69822;SDS011;57119;52.516;13.508;2023-11-19T06:12:05;10.77;;;4.53;;
69822;SDS011;57119;52.516;13.508;2023-11-19T06:14:31;11.73;;;5.00;;
69822;SDS011;57119;52.516;13.508;2023-11-19T06:16:56;12.17;;;4.70;;
69822;SDS011;57119;52.516;13.508;2023-11-19T06:19:22;12.50;;;4.70;;
69822;SDS011;57119;52.516;13.508;2023-11-19T06:21:49;10.95;;;4.80;;
69822;SDS011;57119;52.516;13.508;2023-11-19T06:24:15;10.77;;;5.43;;
69822;SDS011;57119;52.516;13.508;2023-11-19T06:26:40;9.90;;;4.70;;
69822;SDS011;57119;52.516;13.508;2023-11-19T06:29:05;10.10;;;4.63;;
69822;SDS011;57119;52.516;13.508;2023-11-19T06:31:31;12.02;;;5.43;;
69822;SDS011;57119;52.516;13.508;2023-11-19T06:33:56;11.60;;;4.80;;
69822;SDS011;57119;52.516;13.508;2023-11-19T06:36:22;9.93;;;4.70;;
69822;SDS011;57119;52.516;13.508;2023-11-19T06:38:47;10.37;;;4.93;;
69822;SDS011;57119;52.516;13.508;2023-11-19T06:41:12;9.53;;;4.20;;
69822;SDS011;57119;52.516;13.508;2023-11-19T06:43:38;10.17;;;4.70;;
69822;SDS011;57119;52.516;13.508;2023-11-19T06:46:04;11.03;;;4.53;;
69822;SDS011;57119;52.516;13.508;2023-11-19T06:48:33;10.48;;;5.00;;
69822;SDS011;57119;52.516;13.508;2023-11-19T06:50:59;11.18;;;4.90;;
69822;SDS011;57119;52.516;13.508;2023-11-19T06:53:25;10.25;;;4.90;;
69822;SDS011;57119;52.516;13.508;2023-11-19T06:55:50;10.77;;;5.17;;
69822;SDS011;57119;52.516;13.508;2023-11-19T06:58:16;10.60;;;4.90;;
69822;SDS011;57119;52.516;13.508;2023-11-19T07:00:43;11.52;;;5.68;;
69822;SDS011;57119;52.516;13.508;2023-11-19T07:03:08;10.03;;;5.10;;
69822;SDS011;57119;52.516;13.508;2023-11-19T07:05:35;12.80;;;4.60;;
69822;SDS011;57119;52.516;13.508;2023-11-19T07:08:03;10.20;;;4.88;;
69822;SDS011;57119;52.516;13.508;2023-11-19T07:10:29;11.45;;;5.00;;
69822;SDS011;57119;52.516;13.508;2023-11-19T07:12:55;13.17;;;4.60;;
69822;SDS011;57119;52.516;13.508;2023-11-19T07:15:21;9.48;;;4.07;;
69822;SDS011;57119;52.516;13.508;2023-11-19T07:17:46;10.23;;;4.30;;
69822;SDS011;57119;52.516;13.508;2023-11-19T07:20:13;10.32;;;4.95;;
69822;SDS011;57119;52.516;13.508;2023-11-19T07:22:42;10.95;;;4.72;;
69822;SDS011;57119;52.516;13.508;2023-11-19T07:25:10;9.70;;;4.13;;
69822;SDS011;57119;52.516;13.508;2023-11-19T07:27:38;8.77;;;4.40;;
69822;SDS011;57119;52.516;13.508;2023-11-19T07:30:03;9.93;;;4.60;;
69822;SDS011;57119;52.516;13.508;2023-11-19T07:32:30;9.65;;;4.30;;
69822;SDS011;57119;52.516;13.508;2023-11-19T07:34:56;9.63;;;4.90;;
69822;SDS011;57119;52.516;13.508;2023-11-19T07:37:21;9.53;;;4.30;;
69822;SDS011;57119;52.516;13.508;2023-11-19T07:39:47;8.85;;;3.92;;
69822;SDS011;57119;52.516;13.508;2023-11-19T07:42:12;8.87;;;3.73;;
69822;SDS011;57119;52.516;13.508;2023-11-19T07:44:38;9.27;;;3.90;;
69822;SDS011;57119;52.516;13.508;2023-11-19T07:47:03;7.55;;;3.72;;
69822;SDS011;57119;52.516;13.508;2023-11-19T07:49:29;10.03;;;4.40;;
69822;SDS011;57119;52.516;13.508;2023-11-19T07:51:55;9.63;;;3.88;;
69822;SDS011;57119;52.516;13.508;2023-11-19T07:54:21;8.73;;;3.80;;
69822;SDS011;57119;52.516;13.508;2023-11-19T07:56:47;7.63;;;3.60;;
69822;SDS011;57119;52.516;13.508;2023-11-19T07:59:12;8.30;;;3.90;;
69822;SDS011;57119;52.516;13.508;2023-11-19T08:01:37;10.13;;;4.30;;
69822;SDS011;57119;52.516;13.508;2023-11-19T08:04:03;9.20;;;4.40;;
69822;SDS011;57119;52.516;13.508;2023-11-19T08:06:28;7.83;;;4.23;;
69822;SDS011;57119;52.516;13.508;2023-11-19T08:08:54;8.40;;;4.27;;
69822;SDS011;57119;52.516;13.508;2023-11-19T08:11:19;8.82;;;4.03;;
69822;SDS011;57119;52.516;13.508;2023-11-19T08:13:45;10.00;;;4.90;;
69822;SDS011;57119;52.516;13.508;2023-11-19T08:16:10;9.80;;;4.53;;
69822;SDS011;57119;52.516;13.508;2023-11-19T08:18:36;9.90;;;4.88;;
69822;SDS011;57119;52.516;13.508;2023-11-19T08:21:01;9.37;;;4.60;;
69822;SDS011;57119;52.516;13.508;2023-11-19T08:23:29;11.20;;;5.30;;
69822;SDS011;57119;52.516;13.508;2023-11-19T08:25:55;9.23;;;4.30;;
69822;SDS011;57119;52.516;13.508;2023-11-19T08:28:20;11.82;;;4.90;;
69822;SDS011;57119;52.516;13.508;2023-11-19T08:30:46;12.27;;;5.57;;
69822;SDS011;57119;52.516;13.508;2023-11-19T08:33:12;11.18;;;5.03;;
69822;SDS011;57119;52.516;13.508;2023-11-19T08:35:37;8.93;;;4.77;;
69822;SDS011;57119;52.516;13.508;2023-11-19T08:38:02;10.57;;;4.73;;
69822;SDS011;57119;52.516;13.508;2023-11-19T08:40:28;10.47;;;4.80;;
69822;SDS011;57119;52.516;13.508;2023-11-19T08:42:55;10.23;;;4.53;;
69822;SDS011;57119;52.516;13.508;2023-11-19T08:45:21;10.07;;;4.68;;
69822;SDS011;57119;52.516;13.508;2023-11-19T08:47:46;11.00;;;4.53;;
69822;SDS011;57119;52.516;13.508;2023-11-19T08:50:12;10.73;;;4.73;;
69822;SDS011;57119;52.516;13.508;2023-11-19T08:52:37;10.87;;;4.70;;
69822;SDS011;57119;52.516;13.508;2023-11-19T08:55:03;10.55;;;5.22;;
69822;SDS011;57119;52.516;13.508;2023-11-19T08:57:30;11.35;;;5.22;;
69822;SDS011;57119;52.516;13.508;2023-11-19T08:59:56;10.37;;;4.43;;
69822;SDS011;57119;52.516;13.508;2023-11-19T09:02:21;10.90;;;5.03;;
69822;SDS011;57119;52.516;13.508;2023-11-19T09:04:47;9.10;;;4.70;;
69822;SDS011;57119;52.516;13.508;2023-11-19T09:07:12;9.33;;;4.43;;
69822;SDS011;57119;52.516;13.508;2023-11-19T09:09:37;9.20;;;4.40;;
69822;SDS011;57119;52.516;13.508;2023-11-19T09:12:03;10.10;;;4.93;;
69822;SDS011;57119;52.516;13.508;2023-11-19T09:14:29;10.38;;;4.45;;
69822;SDS011;57119;52.516;13.508;2023-11-19T09:16:55;9.38;;;4.40;;
69822;SDS011;57119;52.516;13.508;2023-11-19T09:19:21;9.03;;;4.43;;
69822;SDS011;57119;52.516;13.508;2023-11-19T09:21:46;8.38;;;4.22;;
69822;SDS011;57119;52.516;13.508;2023-11-19T09:24:14;9.47;;;3.83;;
69822;SDS011;57119;52.516;13.508;2023-11-19T09:26:40;8.70;;;4.05;;
69822;SDS011;57119;52.516;13.508;2023-11-19T09:29:06;8.80;;;4.45;;
69822;SDS011;57119;52.516;13.508;2023-11-19T09:31:32;8.65;;;4.18;;
69822;SDS011;57119;52.516;13.508;2023-11-19T09:33:58;9.20;;;4.63;;
69822;SDS011;57119;52.516;13.508;2023-11-19T09:36:23;11.93;;;5.27;;
69822;SDS011;57119;52.516;13.508;2023-11-19T09:38:49;9.52;;;5.07;;
69822;SDS011;57119;52.516;13.508;2023-11-19T09:41:14;8.90;;;4.40;;
69822;SDS011;57119;52.516;13.508;2023-11-19T09:43:40;9.20;;;4.47;;
69822;SDS011;57119;52.516;13.508;2023-11-19T09:46:09;9.05;;;3.97;;
69822;SDS011;57119;52.516;13.508;2023-11-19T09:48:38;9.63;;;4.00;;
69822;SDS011;57119;52.516;13.508;2023-11-19T09:51:07;9.88;;;4.53;;
69822;SDS011;57119;52.516;13.508;2023-11-19T09:53:34;9.20;;;4.35;;
69822;SDS011;57119;52.516;13.508;2023-11-19T09:56:01;6.70;;;3.20;;
69822;SDS011;57119;52.516;13.508;2023-11-19T09:58:28;7.28;;;3.40;;
69822;SDS011;57119;52.516;13.508;2023-11-19T10:00:55;6.80;;;3.10;;
69822;SDS011;57119;52.516;13.508;2023-11-19T10:03:20;7.80;;;3.50;;
69822;SDS011;57119;52.516;13.508;2023-11-19T10:05:48;5.40;;;2.43;;
69822;SDS011;57119;52.516;13.508;2023-11-19T10:08:13;7.22;;;2.42;;
69822;SDS011;57119;52.516;13.508;2023-11-19T10:10:39;6.60;;;2.60;;
69822;SDS011;57119;52.516;13.508;2023-11-19T10:13:04;7.05;;;2.75;;
69822;SDS011;57119;52.516;13.508;2023-11-19T10:15:31;6.87;;;2.10;;
69822;SDS011;57119;52.516;13.508;2023-11-19T10:18:01;5.97;;;2.80;;
69822;SDS011;57119;52.516;13.508;2023-11-19T10:20:34;7.17;;;2.80;;
69822;SDS011;57119;52.516;13.508;2023-11-19T10:23:03;7.63;;;2.70;;
69822;SDS011;57119;52.516;13.508;2023-11-19T10:25:29;8.30;;;3.28;;
69822;SDS011;57119;52.516;13.508;2023-11-19T10:27:55;6.80;;;2.90;;
69822;SDS011;57119;52.516;13.508;2023-11-19T10:30:22;6.43;;;2.10;;
69822;SDS011;57119;52.516;13.508;2023-11-19T10:33:07;6.57;;;2.03;;
69822;SDS011;57119;52.516;13.508;2023-11-19T10:35:33;7.60;;;2.00;;
69822;SDS011;57119;52.516;13.508;2023-11-19T10:38:00;5.05;;;1.80;;
69822;SDS011;57119;52.516;13.508;2023-11-19T10:40:41;7.53;;;2.30;;
69822;SDS011;57119;52.516;13.508;2023-11-19T10:43:07;6.37;;;2.43;;
69822;SDS011;57119;52.516;13.508;2023-11-19T10:45:34;7.05;;;2.28;;
69822;SDS011;57119;52.516;13.508;2023-11-19T10:48:00;7.00;;;2.00;;
69822;SDS011;57119;52.516;13.508;2023-11-19T10:50:27;7.03;;;1.92;;
69822;SDS011;57119;52.516;13.508;2023-11-19T10:52:56;5.40;;;2.10;;
69822;SDS011;57119;52.516;13.508;2023-11-19T10:55:25;6.35;;;1.73;;
69822;SDS011;57119;52.516;13.508;2023-11-19T10:57:53;8.45;;;2.40;;
69822;SDS011;57119;52.516;13.508;2023-11-19T11:00:24;7.47;;;1.90;;
69822;SDS011;57119;52.516;13.508;2023-11-19T11:02:50;6.28;;;1.60;;
69822;SDS011;57119;52.516;13.508;2023-11-19T11:05:21;7.78;;;2.10;;
69822;SDS011;57119;52.516;13.508;2023-11-19T11:07:50;10.75;;;1.70;;
69822;SDS011;57119;52.516;13.508;2023-11-19T11:10:25;6.78;;;1.88;;
69822;SDS011;57119;52.516;13.508;2023-11-19T11:12:52;6.93;;;1.70;;
69822;SDS011;57119;52.516;13.508;2023-11-19T11:15:24;7.57;;;1.90;;
69822;SDS011;57119;52.516;13.508;2023-11-19T11:17:54;7.97;;;2.85;;
69822;SDS011;57119;52.516;13.508;2023-11-19T11:20:27;9.60;;;3.33;;
69822;SDS011;57119;52.516;13.508;2023-11-19T11:28:50;6.88;;;2.10;;
69822;SDS011;57119;52.516;13.508;2023-11-19T11:39:49;9.50;;;2.50;;
69822;SDS011;57119;52.516;13.508;2023-11-19T11:50:11;8.40;;;3.10;;
69822;SDS011;57119;52.516;13.508;2023-11-19T11:53:13;11.77;;;2.90;;
69822;SDS011;57119;52.516;13.508;2023-11-19T11:55:37;9.18;;;2.83;;
69822;SDS011;57119;52.516;13.508;2023-11-19T11:58:18;14.40;;;3.10;;
69822;SDS011;57119;52.516;13.508;2023-11-19T12:00:44;9.63;;;2.17;;
69822;SDS011;57119;52.516;13.508;2023-11-19T12:03:12;10.68;;;2.47;;
69822;SDS011;57119;52.516;13.508;2023-11-19T12:05:42;15.40;;;2.83;;
69822;SDS011;57119;52.516;13.508;2023-11-19T12:08:14;14.57;;;2.50;;
69822;SDS011;57119;52.516;13.508;2023-11-19T12:10:51;11.82;;;2.83;;
69822;SDS011;57119;52.516;13.508;2023-11-19T12:13:19;13.18;;;2.50;;
69822;SDS011;57119;52.516;13.508;2023-11-19T12:18:28;12.23;;;2.65;;
69822;SDS011;57119;52.516;13.508;2023-11-19T12:20:55;13.40;;;2.37;;
69822;SDS011;57119;52.516;13.508;2023-11-19T12:23:21;14.68;;;2.70;;
69822;SDS011;57119;52.516;13.508;2023-11-19T12:25:50;18.38;;;3.08;;
69822;SDS011;57119;52.516;13.508;2023-11-19T12:28:15;10.83;;;2.30;;
69822;SDS011;57119;52.516;13.508;2023-11-19T12:30:44;13.68;;;2.50;;
69822;SDS011;57119;52.516;13.508;2023-11-19T12:33:11;17.00;;;3.20;;
69822;SDS011;57119;52.516;13.508;2023-11-19T12:35:40;10.95;;;2.80;;
69822;SDS011;57119;52.516;13.508;2023-11-19T12:38:07;12.02;;;2.50;;
69822;SDS011;57119;52.516;13.508;2023-11-19T12:40:33;13.88;;;3.05;;
69822;SDS011;57119;52.516;13.508;2023-11-19T12:42:58;11.97;;;2.93;;
69822;SDS011;57119;52.516;13.508;2023-11-19T12:45:25;13.98;;;2.85;;
69822;SDS011;57119;52.516;13.508;2023-11-19T12:48:06;9.67;;;2.20;;
69822;SDS011;57119;52.516;13.508;2023-11-19T12:53:24;12.38;;;2.55;;
69822;SDS011;57119;52.516;13.508;2023-11-19T12:55:51;17.90;;;3.78;;
69822;SDS011;57119;52.516;13.508;2023-11-19T12:58:33;10.40;;;3.20;;
69822;SDS011;57119;52.516;13.508;2023-11-19T13:01:00;17.00;;;3.40;;
69822;SDS011;57119;52.516;13.508;2023-11-19T13:03:38;15.52;;;3.85;;
69822;SDS011;57119;52.516;13.508;2023-11-19T13:06:04;17.27;;;3.30;;
69822;SDS011;57119;52.516;13.508;2023-11-19T13:08:35;12.57;;;3.15;;
69822;SDS011;57119;52.516;13.508;2023-11-19T13:11:13;14.45;;;2.50;;
69822;SDS011;57119;52.516;13.508;2023-11-19T13:16:25;12.77;;;3.28;;
69822;SDS011;57119;52.516;13.508;2023-11-19T13:18:51;12.17;;;2.57;;
69822;SDS011;57119;52.516;13.508;2023-11-19T13:21:16;13.02;;;3.33;;
69822;SDS011;57119;52.516;13.508;2023-11-19T13:23:42;19.40;;;5.17;;
69822;SDS011;57119;52.516;13.508;2023-11-19T13:26:08;13.02;;;2.50;;
69822;SDS011;57119;52.516;13.508;2023-11-19T13:28:34;13.93;;;3.60;;
69822;SDS011;57119;52.516;13.508;2023-11-19T13:30:59;11.85;;;2.28;;
69822;SDS011;57119;52.516;13.508;2023-11-19T13:33:25;13.30;;;2.63;;
69822;SDS011;57119;52.516;13.508;2023-11-19T13:35:51;14.18;;;2.50;;
69822;SDS011;57119;52.516;13.508;2023-11-19T13:38:16;12.63;;;3.37;;
69822;SDS011;57119;52.516;13.508;2023-11-19T13:40:42;12.13;;;2.53;;
69822;SDS011;57119;52.516;13.508;2023-11-19T13:43:07;17.52;;;2.80;;
69822;SDS011;57119;52.516;13.508;2023-11-19T13:45:33;13.87;;;2.80;;
69822;SDS011;57119;52.516;13.508;2023-11-19T13:47:59;15.10;;;2.90;;
69822;SDS011;57119;52.516;13.508;2023-11-19T13:50:24;19.53;;;3.20;;
69822;SDS011;57119;52.516;13.508;2023-11-19T13:52:49;12.40;;;2.30;;
69822;SDS011;57119;52.516;13.508;2023-11-19T13:55:15;14.53;;;3.17;;
69822;SDS011;57119;52.516;13.508;2023-11-19T13:57:41;19.87;;;3.80;;
69822;SDS011;57119;52.516;13.508;2023-11-19T14:00:07;15.10;;;3.08;;
69822;SDS011;57119;52.516;13.508;2023-11-19T14:02:44;17.40;;;3.13;;
69822;SDS011;57119;52.516;13.508;2023-11-19T14:05:11;18.20;;;2.75;;
69822;SDS011;57119;52.516;13.508;2023-11-19T14:07:41;19.93;;;3.73;;
69822;SDS011;57119;52.516;13.508;2023-11-19T14:10:06;14.02;;;2.90;;
69822;SDS011;57119;52.516;13.508;2023-11-19T14:12:34;15.70;;;2.78;;
69822;SDS011;57119;52.516;13.508;2023-11-19T14:15:00;17.70;;;2.95;;
69822;SDS011;57119;52.516;13.508;2023-11-19T14:17:26;17.10;;;3.10;;
69822;SDS011;57119;52.516;13.508;2023-11-19T14:19:51;18.23;;;3.70;;
69822;SDS011;57119;52.516;13.508;2023-11-19T14:22:17;16.30;;;2.90;;
69822;SDS011;57119;52.516;13.508;2023-11-19T14:24:42;21.57;;;3.50;;
69822;SDS011;57119;52.516;13.508;2023-11-19T14:27:10;24.05;;;4.63;;
69822;SDS011;57119;52.516;13.508;2023-11-19T14:29:36;20.27;;;3.80;;
69822;SDS011;57119;52.516;13.508;2023-11-19T14:32:02;14.93;;;3.25;;
69822;SDS011;57119;52.516;13.508;2023-11-19T14:34:31;16.58;;;3.40;;
69822;SDS011;57119;52.516;13.508;2023-11-19T14:36:57;20.50;;;3.27;;
69822;SDS011;57119;52.516;13.508;2023-11-19T14:39:23;16.80;;;3.22;;
69822;SDS011;57119;52.516;13.508;2023-11-19T14:41:48;21.67;;;3.53;;
69822;SDS011;57119;52.516;13.508;2023-11-19T14:44:14;19.10;;;3.53;;
69822;SDS011;57119;52.516;13.508;2023-11-19T14:46:40;14.85;;;3.75;;
69822;SDS011;57119;52.516;13.508;2023-11-19T14:49:05;18.37;;;3.30;;
69822;SDS011;57119;52.516;13.508;2023-11-19T14:51:32;16.08;;;3.38;;
69822;SDS011;57119;52.516;13.508;2023-11-19T14:54:00;18.90;;;3.77;;
69822;SDS011;57119;52.516;13.508;2023-11-19T14:56:25;18.25;;;3.42;;